createdAt,value
2023-03-10T00:00:15.859Z,91.90
2023-03-10T00:03:22.184Z,91.93
2023-03-10T00:06:13.906Z,91.88
2023-03-10T00:09:05.587Z,91.95
2023-03-10T00:11:54.298Z,91.97
2023-03-10T00:14:43.642Z,92.04
2023-03-10T00:17:32.321Z,92.18
2023-03-10T00:20:22.358Z,92.19
2023-03-10T00:23:11.217Z,92.25
2023-03-10T00:26:01.110Z,92.10
2023-03-10T00:28:50.041Z,92.10
2023-03-10T00:31:39.257Z,92.09
2023-03-10T00:34:29.634Z,92.18
2023-03-10T00:37:18.963Z,92.21
2023-03-10T00:40:11.133Z,92.37
2023-03-10T00:42:59.911Z,92.43
2023-03-10T00:45:49.202Z,92.50
2023-03-10T00:48:38.302Z,92.46
2023-03-10T00:51:27.312Z,92.42
2023-03-10T00:54:17.336Z,92.17
2023-03-10T00:57:06.324Z,92.03
2023-03-10T00:59:55.083Z,92.02
2023-03-10T01:02:44.079Z,92.16
2023-03-10T01:05:32.886Z,92.12
2023-03-10T01:08:22.387Z,91.99
2023-03-10T01:11:14.688Z,92.23
2023-03-10T01:14:07.356Z,92.20
2023-03-10T01:16:56.040Z,92.20
2023-03-10T01:19:45.244Z,92.34
2023-03-10T01:22:34.059Z,92.44
2023-03-10T01:25:23.333Z,92.47
2023-03-10T01:28:12.502Z,92.66
2023-03-10T01:31:01.726Z,92.72
2023-03-10T01:33:50.605Z,92.85
2023-03-10T01:36:42.371Z,92.92
2023-03-10T01:39:31.005Z,92.98
2023-03-10T01:42:20.290Z,92.85
2023-03-10T01:45:14.747Z,93.00
2023-03-10T01:48:04.313Z,93.02
2023-03-10T01:50:55.967Z,92.90
2023-03-10T01:53:45.271Z,92.90
2023-03-10T01:56:36.578Z,92.95
2023-03-10T01:59:27.947Z,93.07
2023-03-10T02:03:41.546Z,93.12
2023-03-10T02:06:32.394Z,93.20
2023-03-10T02:09:21.628Z,93.39
2023-03-10T02:12:13.104Z,93.46
2023-03-10T02:15:01.779Z,93.53
2023-03-10T02:17:53.279Z,93.58
2023-03-10T02:20:54.017Z,93.44
2023-03-10T02:24:01.303Z,93.43
2023-03-10T02:26:59.736Z,93.55
2023-03-10T02:30:09.791Z,93.60
2023-03-10T02:33:02.680Z,93.59
2023-03-10T02:35:51.865Z,93.56
2023-03-10T02:38:43.100Z,93.65
2023-03-10T02:41:35.448Z,93.69
2023-03-10T02:44:25.614Z,93.72
2023-03-10T02:47:16.302Z,93.68
2023-03-10T02:50:08.498Z,93.72
2023-03-10T02:53:09.914Z,93.76
2023-03-10T02:56:02.836Z,93.75
2023-03-10T02:58:53.152Z,93.83
2023-03-10T03:01:42.602Z,93.75
2023-03-10T03:04:32.434Z,93.77
2023-03-10T03:07:21.345Z,93.74
2023-03-10T03:10:11.234Z,93.79
2023-03-10T03:12:59.946Z,93.78
2023-03-10T03:15:49.358Z,93.72
2023-03-10T03:18:38.608Z,93.64
2023-03-10T03:21:28.130Z,93.56
2023-03-10T03:24:18.250Z,93.50
2023-03-10T03:27:07.582Z,93.48
2023-03-10T03:29:58.453Z,93.34
2023-03-10T03:32:48.357Z,93.29
2023-03-10T03:35:38.208Z,93.24
2023-03-10T03:38:28.028Z,93.40
2023-03-10T03:41:16.826Z,93.44
2023-03-10T03:44:05.919Z,93.39
2023-03-10T03:46:55.819Z,93.26
2023-03-10T03:49:45.198Z,93.17
2023-03-10T03:52:34.443Z,93.05
2023-03-10T03:55:23.608Z,93.05
2023-03-10T03:58:13.325Z,92.87
2023-03-10T04:01:02.712Z,92.73
2023-03-10T04:03:54.676Z,92.67
2023-03-10T04:06:44.553Z,92.63
2023-03-10T04:09:33.571Z,92.72
2023-03-10T04:12:22.742Z,92.76
2023-03-10T04:15:12.677Z,92.61
2023-03-10T04:18:01.889Z,92.50
2023-03-10T04:20:50.950Z,92.11
2023-03-10T04:23:42.467Z,92.00
2023-03-10T04:26:33.001Z,92.11
2023-03-10T04:29:24.824Z,92.14
2023-03-10T04:32:14.420Z,92.35
2023-03-10T04:35:04.634Z,93.00
2023-03-10T04:37:54.779Z,93.50
2023-03-10T04:40:45.868Z,94.74
2023-03-10T04:43:35.253Z,95.29
2023-03-10T04:46:24.364Z,95.82
2023-03-10T04:49:15.423Z,95.87
2023-03-10T04:52:06.888Z,96.17
2023-03-10T04:54:55.941Z,96.18
2023-03-10T04:57:45.297Z,96.68
2023-03-10T05:00:34.192Z,97.00
2023-03-10T05:03:23.981Z,97.35
2023-03-10T05:06:15.561Z,97.74
2023-03-10T05:09:06.263Z,97.89
2023-03-10T05:11:55.417Z,97.94
2023-03-10T05:14:46.832Z,98.36
2023-03-10T05:17:35.908Z,98.48
2023-03-10T05:20:25.721Z,98.52
2023-03-10T05:23:14.772Z,98.50
2023-03-10T05:26:08.778Z,98.35
2023-03-10T05:28:58.547Z,98.06
2023-03-10T05:31:56.698Z,98.54
2023-03-10T05:34:50.096Z,98.80
2023-03-10T05:37:41.270Z,98.98
2023-03-10T05:40:30.253Z,99.06
2023-03-10T05:43:20.452Z,99.11
2023-03-10T05:46:11.298Z,99.37
2023-03-10T05:49:05.640Z,99.41
2023-03-10T05:51:55.048Z,99.22
2023-03-10T05:54:44.324Z,99.50
2023-03-10T05:57:34.555Z,99.55
2023-03-10T06:00:24.181Z,99.63
2023-03-10T06:03:18.286Z,99.53
2023-03-10T06:06:07.810Z,99.45
2023-03-10T06:08:57.025Z,99.73
2023-03-10T06:11:46.109Z,99.64
2023-03-10T06:14:34.704Z,99.62
2023-03-10T06:17:24.381Z,99.54
2023-03-10T06:20:14.021Z,99.53
2023-03-10T06:23:03.161Z,99.36
2023-03-10T06:26:02.141Z,99.25
2023-03-10T06:28:51.543Z,99.38
2023-03-10T06:31:40.211Z,99.36
2023-03-10T06:34:29.143Z,99.22
2023-03-10T06:37:18.010Z,99.35
2023-03-10T06:40:10.408Z,99.39
2023-03-10T06:42:58.983Z,99.51
2023-03-10T06:45:48.696Z,99.78
2023-03-10T06:48:38.456Z,99.86
2023-03-10T06:51:27.520Z,99.80
2023-03-10T06:54:16.068Z,99.75
2023-03-10T06:57:05.681Z,99.83
2023-03-10T06:59:54.733Z,99.88
2023-03-10T07:02:44.850Z,99.64
2023-03-10T07:05:33.595Z,99.54
2023-03-10T07:08:22.455Z,99.56
2023-03-10T07:11:11.326Z,99.45
2023-03-10T07:14:00.420Z,99.31
2023-03-10T07:16:49.365Z,99.20
2023-03-10T07:19:38.527Z,98.95
2023-03-10T07:22:27.125Z,98.96
2023-03-10T07:25:16.718Z,99.14
2023-03-10T07:28:06.954Z,99.06
2023-03-10T07:30:57.858Z,99.25
2023-03-10T07:33:46.988Z,99.20
2023-03-10T07:36:35.798Z,98.88
2023-03-10T07:39:24.580Z,99.11
2023-03-10T07:42:13.600Z,98.38
2023-03-10T07:45:05.376Z,97.75
2023-03-10T07:47:55.389Z,97.13
2023-03-10T07:50:44.124Z,96.81
2023-03-10T07:53:33.620Z,96.70
2023-03-10T07:56:22.684Z,96.47
2023-03-10T07:59:12.061Z,96.75
2023-03-10T08:02:00.731Z,96.68
2023-03-10T08:04:49.993Z,96.05
2023-03-10T08:07:39.138Z,95.89
2023-03-10T08:10:28.187Z,95.50
2023-03-10T08:13:17.026Z,95.43
2023-03-10T08:16:07.136Z,96.02
2023-03-10T08:18:55.860Z,96.14
2023-03-10T08:21:45.477Z,96.28
2023-03-10T08:24:34.103Z,95.85
2023-03-10T08:27:23.422Z,95.62
2023-03-10T08:30:13.515Z,95.76
2023-03-10T08:33:07.877Z,95.53
2023-03-10T08:36:12.166Z,95.29
2023-03-10T08:39:01.587Z,94.81
2023-03-10T08:41:50.356Z,95.01
2023-03-10T08:44:40.160Z,94.92
2023-03-10T08:47:31.882Z,94.99
2023-03-10T08:50:21.184Z,94.89
2023-03-10T08:53:10.006Z,94.36
2023-03-10T08:55:59.727Z,93.81
2023-03-10T08:58:48.678Z,93.95
2023-03-10T09:01:38.500Z,93.35
2023-03-10T09:04:27.220Z,92.64
2023-03-10T09:07:16.406Z,92.13
2023-03-10T09:10:05.522Z,91.79
2023-03-10T09:13:11.115Z,91.04
2023-03-10T09:16:01.800Z,90.77
2023-03-10T09:18:50.724Z,90.46
2023-03-10T09:21:39.733Z,89.83
2023-03-10T09:24:28.699Z,89.20
2023-03-10T09:27:17.476Z,88.56
2023-03-10T09:30:07.604Z,88.31
2023-03-10T09:32:56.894Z,87.55
2023-03-10T09:35:52.938Z,86.99
2023-03-10T09:38:46.251Z,86.42
2023-03-10T09:41:41.634Z,85.44
2023-03-10T09:44:34.363Z,85.53
2023-03-10T09:47:26.671Z,85.52
2023-03-10T09:50:38.022Z,85.39
2023-03-10T09:53:29.562Z,84.91
2023-03-10T09:56:29.755Z,84.84
2023-03-10T09:59:34.639Z,84.68
2023-03-10T10:02:32.700Z,84.31
2023-03-10T10:05:27.902Z,84.43
2023-03-10T10:08:24.820Z,83.70
2023-03-10T10:11:17.275Z,83.23
2023-03-10T10:14:22.375Z,83.03
2023-03-10T10:17:33.803Z,82.76
2023-03-10T10:20:33.567Z,83.30
2023-03-10T10:23:47.391Z,82.49
2023-03-10T10:26:36.055Z,82.10
2023-03-10T10:29:29.471Z,81.56
2023-03-10T10:32:18.435Z,81.55
2023-03-10T10:35:15.558Z,81.55
2023-03-10T10:38:20.757Z,81.55
2023-03-10T10:41:22.764Z,80.13
2023-03-10T10:44:16.630Z,78.36
2023-03-10T10:47:05.983Z,77.68
2023-03-10T10:49:55.442Z,76.71
2023-03-10T10:52:48.986Z,76.69
2023-03-10T10:55:37.590Z,77.07
2023-03-10T10:58:35.673Z,77.13
2023-03-10T11:01:27.274Z,76.59
2023-03-10T11:04:17.634Z,75.72
2023-03-10T11:07:24.022Z,76.28
2023-03-10T11:10:25.407Z,74.55
2023-03-10T11:13:24.019Z,73.96
2023-03-10T11:16:47.726Z,73.58
2023-03-10T11:19:49.836Z,72.65
2023-03-10T11:22:57.025Z,71.75
2023-03-10T11:25:52.653Z,70.97
2023-03-10T11:29:04.868Z,70.91
2023-03-10T11:32:08.475Z,70.68
2023-03-10T11:34:58.536Z,70.77
2023-03-10T11:37:55.193Z,70.73
2023-03-10T11:40:49.756Z,70.44
2023-03-10T11:43:51.103Z,69.67
2023-03-10T11:46:46.032Z,70.75
2023-03-10T11:49:40.369Z,71.84
2023-03-10T11:52:32.018Z,71.59
2023-03-10T11:55:22.051Z,70.91
2023-03-10T11:58:40.510Z,70.45
2023-03-10T12:02:14.314Z,70.60
2023-03-10T12:05:18.004Z,70.78
2023-03-10T12:08:07.098Z,71.04
2023-03-10T12:10:57.169Z,70.77
2023-03-10T12:13:49.903Z,70.11
2023-03-10T12:16:41.606Z,69.85
2023-03-10T12:19:30.258Z,68.94
2023-03-10T12:22:22.102Z,69.32
2023-03-10T12:25:33.333Z,68.45
2023-03-10T12:28:25.239Z,68.56
2023-03-10T12:31:39.343Z,67.93
2023-03-10T12:34:32.541Z,67.50
2023-03-10T12:37:23.443Z,67.63
2023-03-10T12:40:30.834Z,67.74
2023-03-10T12:43:44.959Z,67.74
2023-03-10T12:46:51.009Z,67.67
2023-03-10T12:49:53.038Z,67.53
2023-03-10T12:52:45.059Z,67.56
2023-03-10T12:55:33.943Z,67.14
2023-03-10T12:58:26.041Z,66.99
2023-03-10T13:01:22.599Z,66.88
2023-03-10T13:04:19.509Z,67.18
2023-03-10T13:07:15.814Z,66.79
2023-03-10T13:10:07.474Z,67.44
2023-03-10T13:13:01.882Z,66.88
2023-03-10T13:16:02.627Z,66.67
2023-03-10T13:18:53.550Z,66.20
2023-03-10T13:21:44.544Z,66.06
2023-03-10T13:24:39.094Z,65.70
2023-03-10T13:27:30.943Z,65.07
2023-03-10T13:30:21.768Z,64.95
2023-03-10T13:33:18.501Z,65.15
2023-03-10T13:36:30.233Z,65.34
2023-03-10T13:39:27.720Z,65.38
2023-03-10T13:42:40.798Z,65.49
2023-03-10T13:45:35.719Z,65.09
2023-03-10T13:48:26.387Z,65.43
2023-03-10T13:51:18.541Z,65.14
2023-03-10T13:54:23.770Z,65.63
2023-03-10T13:57:33.707Z,65.10
2023-03-10T14:00:25.986Z,64.82
2023-03-10T14:03:15.841Z,65.07
2023-03-10T14:06:13.669Z,65.45
2023-03-10T14:09:23.604Z,65.71
2023-03-10T14:12:13.737Z,65.77
2023-03-10T14:15:38.831Z,65.59
2023-03-10T14:18:35.592Z,65.78
2023-03-10T14:21:26.971Z,64.93
2023-03-10T14:24:16.393Z,64.70
2023-03-10T14:27:10.224Z,65.09
2023-03-10T14:30:04.805Z,65.12
2023-03-10T14:32:55.216Z,65.15
2023-03-10T14:35:46.114Z,65.27
2023-03-10T14:38:35.188Z,65.17
2023-03-10T14:41:25.299Z,65.12
2023-03-10T14:44:14.307Z,65.21
2023-03-10T14:47:03.075Z,65.55
2023-03-10T14:49:52.172Z,64.88
2023-03-10T14:52:40.949Z,64.53
2023-03-10T14:55:30.093Z,64.82
2023-03-10T14:58:22.011Z,65.25
2023-03-10T15:01:10.930Z,64.85
2023-03-10T15:03:59.553Z,65.03
2023-03-10T15:06:48.951Z,65.70
2023-03-10T15:09:37.757Z,65.93
2023-03-10T15:12:26.697Z,66.00
2023-03-10T15:15:22.144Z,66.13
2023-03-10T15:18:14.266Z,65.97
2023-03-10T15:21:03.429Z,66.29
2023-03-10T15:23:52.242Z,66.23
2023-03-10T15:26:41.270Z,66.49
2023-03-10T15:29:30.814Z,66.66
2023-03-10T15:32:19.496Z,66.77
2023-03-10T15:35:10.936Z,66.93
2023-03-10T15:37:59.712Z,66.63
2023-03-10T15:40:48.805Z,66.99
2023-03-10T15:43:37.486Z,67.30
2023-03-10T15:46:27.128Z,67.21
2023-03-10T15:49:16.124Z,67.12
2023-03-10T15:52:05.149Z,67.47
2023-03-10T15:54:54.111Z,67.32
2023-03-10T15:57:44.908Z,67.47
2023-03-10T16:00:33.625Z,67.71
2023-03-10T16:03:22.592Z,67.99
2023-03-10T16:06:12.689Z,68.65
2023-03-10T16:09:01.666Z,68.86
2023-03-10T16:11:50.411Z,69.44
2023-03-10T16:14:39.313Z,69.69
2023-03-10T16:17:28.852Z,69.98
2023-03-10T16:20:19.469Z,70.15
2023-03-10T16:23:08.116Z,70.31
2023-03-10T16:26:21.334Z,70.72
2023-03-10T16:29:10.143Z,71.02
2023-03-10T16:31:59.212Z,71.06
2023-03-10T16:34:48.112Z,71.11
2023-03-10T16:37:37.147Z,71.42
2023-03-10T16:40:26.184Z,71.48
2023-03-10T16:43:14.955Z,71.65
2023-03-10T16:46:25.715Z,72.07
2023-03-10T16:49:16.113Z,72.24
2023-03-10T16:52:07.975Z,72.35
2023-03-10T16:54:58.505Z,72.67
2023-03-10T16:57:47.403Z,72.78
2023-03-10T17:00:37.404Z,72.81
2023-03-10T17:03:26.221Z,72.92
2023-03-10T17:06:18.333Z,73.09
2023-03-10T17:09:09.180Z,73.51
2023-03-10T17:11:58.148Z,73.50
2023-03-10T17:14:47.042Z,73.46
2023-03-10T17:17:36.058Z,73.56
2023-03-10T17:20:25.700Z,73.83
2023-03-10T17:23:15.013Z,74.25
2023-03-10T17:26:03.918Z,74.55
2023-03-10T17:28:53.289Z,74.65
2023-03-10T17:31:43.936Z,74.71
2023-03-10T17:34:33.469Z,74.97
2023-03-10T17:37:22.055Z,75.14
2023-03-10T17:40:15.396Z,75.24
2023-03-10T17:43:17.704Z,75.35
2023-03-10T17:46:15.792Z,75.58
2023-03-10T17:49:14.802Z,75.73
2023-03-10T17:52:03.689Z,75.80
2023-03-10T17:54:52.317Z,75.88
2023-03-10T17:57:41.087Z,75.79
2023-03-10T18:00:29.776Z,75.98
2023-03-10T18:03:20.320Z,76.17
2023-03-10T18:06:20.348Z,76.24
2023-03-10T18:09:12.568Z,76.33
2023-03-10T18:12:01.229Z,76.62
2023-03-10T18:14:50.047Z,76.36
2023-03-10T18:17:39.111Z,76.44
2023-03-10T18:20:28.715Z,76.53
2023-03-10T18:23:20.669Z,76.76
2023-03-10T18:26:18.460Z,76.74
2023-03-10T18:29:07.292Z,76.81
2023-03-10T18:31:56.248Z,76.67
2023-03-10T18:34:45.215Z,77.04
2023-03-10T18:37:34.097Z,77.15
2023-03-10T18:40:23.090Z,77.43
2023-03-10T18:43:12.878Z,77.55
2023-03-10T18:46:02.219Z,77.58
2023-03-10T18:48:56.104Z,77.84
2023-03-10T18:51:44.999Z,77.63
2023-03-10T18:54:34.172Z,77.89
2023-03-10T18:57:22.849Z,78.06
2023-03-10T19:00:15.056Z,78.22
2023-03-10T19:03:04.031Z,78.43
2023-03-10T19:05:56.289Z,78.66
2023-03-10T19:08:44.984Z,78.65
2023-03-10T19:11:36.218Z,78.71
2023-03-10T19:14:24.839Z,79.02
2023-03-10T19:17:13.979Z,79.02
2023-03-10T19:20:04.491Z,79.12
2023-03-10T19:22:53.620Z,79.49
2023-03-10T19:25:42.778Z,79.59
2023-03-10T19:28:31.962Z,80.01
2023-03-10T19:31:20.858Z,80.08
2023-03-10T19:34:10.445Z,80.05
2023-03-10T19:36:59.375Z,80.53
2023-03-10T19:39:48.204Z,80.59
2023-03-10T19:42:38.918Z,80.73
2023-03-10T19:45:28.725Z,80.71
2023-03-10T19:48:17.756Z,80.76
2023-03-10T19:51:07.746Z,80.76
2023-03-10T19:53:58.142Z,80.98
2023-03-10T19:56:52.091Z,81.04
2023-03-10T19:59:41.862Z,81.23
2023-03-10T20:02:32.548Z,81.03
2023-03-10T20:05:22.945Z,80.76
2023-03-10T20:08:12.047Z,80.80
2023-03-10T20:11:02.337Z,80.62
2023-03-10T20:13:53.288Z,80.64
2023-03-10T20:16:42.365Z,80.56
2023-03-10T20:19:31.618Z,80.54
2023-03-10T20:22:20.456Z,80.25
2023-03-10T20:25:11.771Z,80.30
2023-03-10T20:28:00.396Z,80.58
2023-03-10T20:30:49.317Z,80.72
2023-03-10T20:33:38.086Z,80.80
2023-03-10T20:36:27.064Z,80.86
2023-03-10T20:39:17.167Z,81.04
2023-03-10T20:42:06.496Z,81.32
2023-03-10T20:44:55.140Z,81.21
2023-03-10T20:47:44.126Z,81.23
2023-03-10T20:50:34.928Z,81.38
2023-03-10T20:53:24.140Z,81.42
2023-03-10T20:56:14.366Z,81.42
2023-03-10T20:59:03.421Z,81.55
2023-03-10T21:01:52.387Z,81.45
2023-03-10T21:04:44.043Z,81.53
2023-03-10T21:07:35.717Z,81.74
2023-03-10T21:10:26.875Z,81.73
2023-03-10T21:13:15.910Z,81.54
2023-03-10T21:16:05.307Z,81.43
2023-03-10T21:18:54.116Z,81.55
2023-03-10T21:21:43.037Z,81.42
2023-03-10T21:24:31.808Z,81.34
2023-03-10T21:27:21.158Z,81.19
2023-03-10T21:30:12.914Z,81.02
2023-03-10T21:33:01.911Z,80.98
2023-03-10T21:35:50.699Z,80.76
2023-03-10T21:38:40.302Z,80.30
2023-03-10T21:41:30.269Z,79.86
2023-03-10T21:44:20.060Z,79.46
2023-03-10T21:47:08.737Z,79.45
2023-03-10T21:49:57.587Z,79.04
2023-03-10T21:52:47.398Z,78.90
2023-03-10T21:55:38.205Z,78.70
2023-03-10T21:58:27.136Z,78.55
2023-03-10T22:01:17.992Z,78.63
2023-03-10T22:04:06.643Z,78.62
2023-03-10T22:06:55.461Z,78.59
2023-03-10T22:09:44.224Z,78.41
2023-03-10T22:12:33.679Z,78.45
2023-03-10T22:15:25.713Z,78.47
2023-03-10T22:18:14.493Z,78.36
2023-03-10T22:21:03.188Z,78.36
2023-03-10T22:23:52.073Z,78.28
2023-03-10T22:26:40.899Z,78.21
2023-03-10T22:29:30.056Z,78.22
2023-03-10T22:32:18.962Z,78.18
2023-03-10T22:35:10.281Z,78.02
2023-03-10T22:37:59.104Z,78.21
2023-03-10T22:40:48.942Z,78.34
2023-03-10T22:43:37.782Z,78.39
2023-03-10T22:46:26.930Z,78.49
2023-03-10T22:49:15.941Z,78.47
2023-03-10T22:52:07.141Z,78.77
2023-03-10T22:54:55.763Z,78.63
2023-03-10T22:57:44.702Z,78.36
2023-03-10T23:00:34.481Z,78.35
2023-03-10T23:03:23.295Z,78.41
2023-03-10T23:06:13.629Z,78.56
2023-03-10T23:09:04.960Z,78.72
2023-03-10T23:11:53.734Z,78.83
2023-03-10T23:14:42.634Z,78.93
2023-03-10T23:17:31.317Z,79.00
2023-03-10T23:20:20.927Z,79.05
2023-03-10T23:23:12.535Z,78.81
2023-03-10T23:26:01.450Z,78.77
2023-03-10T23:28:50.137Z,78.73
2023-03-10T23:31:39.455Z,78.87
2023-03-10T23:34:28.150Z,79.05
2023-03-10T23:37:17.065Z,79.11
2023-03-10T23:40:10.674Z,79.21
2023-03-10T23:43:01.388Z,79.19
2023-03-10T23:45:50.399Z,79.38
2023-03-10T23:48:39.469Z,79.50
2023-03-10T23:51:29.002Z,79.51
2023-03-10T23:54:22.489Z,79.65
2023-03-10T23:57:11.385Z,79.51
